Time;durP1;ratioP1;P1;durP2;ratioP2;P2;SDS_P1;SDS_P2;PMS_P1;PMS_P2;Temp;Humidity;BMP_temperature;BMP_pressure;BME280_temperature;BME280_humidity;BME280_pressure;Samples;Min_cycle;Max_cycle;Signal;HPM_P1;HPM_P2
2022/12/21 00:02:05;;;;;;;1.17;1.13;;;;;;;;;;5008396;28;20883;-67
2022/12/21 00:04:31;;;;;;;3.53;1.20;;;;;;;;;;5008347;28;20489;-67
2022/12/21 00:06:57;;;;;;;1.73;1.30;;;;;;;;;;5008125;28;21011;-67
2022/12/21 00:09:23;;;;;;;1.13;1.13;;;;;;;;;;5008948;28;20416;-67
2022/12/21 00:11:49;;;;;;;1.23;1.13;;;;;;;;;;5009134;28;20953;-68
2022/12/21 00:14:15;;;;;;;1.33;1.33;;;;;;;;;;5008649;28;20476;-67
2022/12/21 00:16:42;;;;;;;1.50;1.40;;;;;;;;;;5007498;28;20437;-67
2022/12/21 00:19:11;;;;;;;3.53;2.53;;;;;;;;;;5008213;28;21059;-68
2022/12/21 00:21:37;;;;;;;1.53;1.53;;;;;;;;;;5006581;28;20962;-67
2022/12/21 00:24:04;;;;;;;1.30;1.30;;;;;;;;;;4991494;28;20964;-67
2022/12/21 00:26:31;;;;;;;0.97;0.97;;;;;;;;;;5008885;28;20955;-67
2022/12/21 00:28:58;;;;;;;3.60;1.00;;;;;;;;;;5009697;28;20447;-68
2022/12/21 00:31:25;;;;;;;3.00;2.57;;;;;;;;;;5008205;28;20491;-67
2022/12/21 00:33:51;;;;;;;2.80;1.10;;;;;;;;;;5009399;28;20433;-68
2022/12/21 00:36:18;;;;;;;4.20;1.23;;;;;;;;;;5009572;28;20436;-68
2022/12/21 00:38:46;;;;;;;1.10;1.10;;;;;;;;;;4992798;28;20432;-67
2022/12/21 00:41:14;;;;;;;2.40;1.50;;;;;;;;;;5009106;28;20531;-68
2022/12/21 00:43:41;;;;;;;0.90;0.90;;;;;;;;;;5010104;28;20960;-68
2022/12/21 00:46:10;;;;;;;1.80;1.10;;;;;;;;;;5008543;28;20431;-67
2022/12/21 00:48:36;;;;;;;1.57;1.47;;;;;;;;;;5009898;28;20439;-67
2022/12/21 00:51:06;;;;;;;1.70;0.93;;;;;;;;;;5009578;28;20476;-67
2022/12/21 00:53:32;;;;;;;3.33;1.30;;;;;;;;;;4991872;28;20463;-66
2022/12/21 00:55:58;;;;;;;7.70;1.27;;;;;;;;;;4991427;28;20436;-67
2022/12/21 00:58:25;;;;;;;5.13;1.30;;;;;;;;;;5009150;28;20434;-67
2022/12/21 01:00:55;;;;;;;0.83;0.83;;;;;;;;;;5009045;28;20451;-67
2022/12/21 01:03:22;;;;;;;1.43;1.33;;;;;;;;;;5008559;28;20428;-67
2022/12/21 01:05:49;;;;;;;3.37;1.50;;;;;;;;;;5008128;28;20512;-68
2022/12/21 01:08:16;;;;;;;2.07;1.50;;;;;;;;;;5007594;28;20497;-68
2022/12/21 01:10:42;;;;;;;1.30;1.20;;;;;;;;;;5009553;28;20464;-67
2022/12/21 01:13:08;;;;;;;1.90;1.10;;;;;;;;;;5009477;28;20486;-68
2022/12/21 01:15:34;;;;;;;1.90;1.80;;;;;;;;;;5008499;28;20909;-67
2022/12/21 01:18:00;;;;;;;2.80;1.20;;;;;;;;;;5008708;28;20444;-68
2022/12/21 01:20:26;;;;;;;3.50;1.47;;;;;;;;;;5009198;28;20816;-66
2022/12/21 01:22:52;;;;;;;1.00;1.00;;;;;;;;;;5009267;28;20436;-67
2022/12/21 01:25:18;;;;;;;1.73;1.53;;;;;;;;;;5008625;28;20435;-67
2022/12/21 01:27:44;;;;;;;1.00;1.00;;;;;;;;;;5009279;28;20436;-67
2022/12/21 01:30:10;;;;;;;1.07;1.07;;;;;;;;;;5009365;28;20436;-67
2022/12/21 01:32:38;;;;;;;1.20;1.20;;;;;;;;;;4991979;28;20484;-67
2022/12/21 01:35:04;;;;;;;3.53;1.50;;;;;;;;;;5008588;28;20458;-68
2022/12/21 01:37:30;;;;;;;1.20;1.17;;;;;;;;;;4991633;28;20440;-68
2022/12/21 01:39:56;;;;;;;3.10;1.33;;;;;;;;;;5009516;28;20444;-67
2022/12/21 01:42:22;;;;;;;1.43;1.00;;;;;;;;;;5007408;28;20428;-67
2022/12/21 01:44:48;;;;;;;1.07;1.07;;;;;;;;;;5007932;28;20523;-67
2022/12/21 01:47:15;;;;;;;6.37;2.33;;;;;;;;;;5008214;28;20432;-67
2022/12/21 01:49:41;;;;;;;1.30;1.30;;;;;;;;;;5009099;28;20551;-68
2022/12/21 01:52:09;;;;;;;1.23;1.10;;;;;;;;;;5007143;28;21034;-67
2022/12/21 01:54:44;;;;;;;1.40;1.30;;;;;;;;;;5008860;28;20439;-68
2022/12/21 01:57:11;;;;;;;1.43;1.10;;;;;;;;;;5007922;28;20439;-67
2022/12/21 01:59:42;;;;;;;0.97;0.97;;;;;;;;;;5008221;28;20442;-66
2022/12/21 02:02:09;;;;;;;1.80;1.17;;;;;;;;;;5008879;28;20436;-67
2022/12/21 02:04:36;;;;;;;2.00;1.70;;;;;;;;;;5009163;28;20494;-67
2022/12/21 02:07:02;;;;;;;2.87;1.00;;;;;;;;;;5008177;28;20494;-67
2022/12/21 02:09:29;;;;;;;1.07;1.07;;;;;;;;;;5006981;28;20437;-67
2022/12/21 02:11:56;;;;;;;2.10;1.27;;;;;;;;;;5008491;28;20577;-68
2022/12/21 02:14:22;;;;;;;1.70;1.43;;;;;;;;;;5011318;28;20474;-67
2022/12/21 02:17:00;;;;;;;1.30;0.77;;;;;;;;;;5011782;28;20516;-68
2022/12/21 02:19:41;;;;;;;1.43;1.33;;;;;;;;;;5011539;28;20431;-67
2022/12/21 02:22:26;;;;;;;0.93;0.93;;;;;;;;;;5009465;28;20444;-67
2022/12/21 02:25:17;;;;;;;2.00;1.57;;;;;;;;;;5010788;28;20435;-67
2022/12/21 02:27:46;;;;;;;1.13;1.13;;;;;;;;;;5011589;28;20436;-66
2022/12/21 02:30:15;;;;;;;2.60;1.20;;;;;;;;;;5012165;28;20436;-67
2022/12/21 02:33:05;;;;;;;2.43;1.23;;;;;;;;;;5011411;28;20509;-68
2022/12/21 02:35:38;;;;;;;1.60;1.60;;;;;;;;;;5011507;28;20798;-66
2022/12/21 02:38:27;;;;;;;6.30;1.30;;;;;;;;;;5011687;28;20546;-67
2022/12/21 02:41:05;;;;;;;1.50;1.50;;;;;;;;;;5009454;28;20847;-68
2022/12/21 02:46:52;;;;;;;1.63;1.37;;;;;;;;;;5010278;28;21010;-66
2022/12/21 02:49:30;;;;;;;1.57;1.00;;;;;;;;;;5012042;28;20872;-67
2022/12/21 02:52:03;;;;;;;2.10;1.07;;;;;;;;;;5010550;28;20483;-67
2022/12/21 02:54:29;;;;;;;4.17;1.50;;;;;;;;;;5011755;28;20519;-68
2022/12/21 02:56:55;;;;;;;1.10;1.10;;;;;;;;;;5010421;28;20855;-66
2022/12/21 02:59:23;;;;;;;1.97;1.20;;;;;;;;;;5009790;28;20499;-67
2022/12/21 03:02:08;;;;;;;1.57;0.83;;;;;;;;;;5010846;28;20523;-68
2022/12/21 03:04:44;;;;;;;1.23;1.13;;;;;;;;;;5011070;28;20502;-68
2022/12/21 03:07:13;;;;;;;1.13;1.10;;;;;;;;;;5008962;28;20489;-66
2022/12/21 03:10:15;;;;;;;5.73;1.60;;;;;;;;;;5009811;28;20453;-67
2022/12/21 03:12:53;;;;;;;1.27;0.90;;;;;;;;;;4929059;29;21110;-67
2022/12/21 03:15:31;;;;;;;0.90;0.90;;;;;;;;;;5001649;28;20466;-67
2022/12/21 03:18:20;;;;;;;1.17;0.93;;;;;;;;;;5010615;28;20552;-67
2022/12/21 03:20:49;;;;;;;1.27;1.27;;;;;;;;;;5010836;28;20520;-68
2022/12/21 03:23:15;;;;;;;1.63;1.07;;;;;;;;;;5011265;28;20959;-68
2022/12/21 03:25:44;;;;;;;0.97;0.97;;;;;;;;;;5009590;28;20468;-67
2022/12/21 03:28:15;;;;;;;1.30;1.20;;;;;;;;;;5010918;28;20946;-68
2022/12/21 03:30:44;;;;;;;1.10;1.03;;;;;;;;;;5010586;28;20475;-67
2022/12/21 03:33:15;;;;;;;2.47;1.00;;;;;;;;;;5010627;28;20436;-67
2022/12/21 03:35:41;;;;;;;1.00;1.00;;;;;;;;;;5010220;28;20471;-67
2022/12/21 03:38:09;;;;;;;1.37;1.00;;;;;;;;;;4992662;28;20721;-66
2022/12/21 03:40:38;;;;;;;0.80;0.80;;;;;;;;;;5010283;28;20436;-68
2022/12/21 03:43:06;;;;;;;1.07;1.07;;;;;;;;;;5009408;28;20460;-68
2022/12/21 03:45:36;;;;;;;1.50;0.93;;;;;;;;;;5010381;28;20483;-67
2022/12/21 03:48:14;;;;;;;2.10;1.10;;;;;;;;;;5010118;28;20439;-67
2022/12/21 03:50:44;;;;;;;1.00;1.00;;;;;;;;;;4992869;28;20506;-68
2022/12/21 03:53:28;;;;;;;0.80;0.80;;;;;;;;;;5010074;28;20947;-67
2022/12/21 03:55:56;;;;;;;0.90;0.90;;;;;;;;;;5008266;28;20482;-67
2022/12/21 03:58:22;;;;;;;2.20;1.07;;;;;;;;;;5010158;28;20494;-67
2022/12/21 04:00:52;;;;;;;0.70;0.70;;;;;;;;;;5010332;28;20851;-66
2022/12/21 04:03:22;;;;;;;6.13;0.80;;;;;;;;;;5009652;28;20440;-66
2022/12/21 04:05:53;;;;;;;0.83;0.80;;;;;;;;;;5009448;28;20954;-67
2022/12/21 04:08:19;;;;;;;1.20;1.20;;;;;;;;;;5008684;28;20475;-67
2022/12/21 04:10:49;;;;;;;6.10;1.40;;;;;;;;;;5009712;28;20451;-67
2022/12/21 04:13:15;;;;;;;2.00;1.07;;;;;;;;;;4992903;28;20579;-67
2022/12/21 04:21:10;;;;;;;1.27;1.10;;;;;;;;;;5009493;28;20815;-66
2022/12/21 04:29:05;;;;;;;3.93;0.97;;;;;;;;;;5010270;28;20931;-67
2022/12/21 04:31:31;;;;;;;1.23;1.10;;;;;;;;;;5008864;28;20485;-66
2022/12/21 04:33:59;;;;;;;1.00;1.00;;;;;;;;;;5009644;28;20506;-66
2022/12/21 04:39:11;;;;;;;0.87;0.70;;;;;;;;;;5010023;28;20466;-66
2022/12/21 04:41:37;;;;;;;0.90;0.90;;;;;;;;;;4991891;28;20436;-67
2022/12/21 04:44:03;;;;;;;1.00;1.00;;;;;;;;;;5008994;28;20432;-67
2022/12/21 04:46:29;;;;;;;1.97;0.97;;;;;;;;;;4990892;28;20548;-67
2022/12/21 04:48:55;;;;;;;1.50;1.40;;;;;;;;;;4992207;28;20436;-67
2022/12/21 04:51:22;;;;;;;7.80;1.07;;;;;;;;;;5007949;28;20554;-68
2022/12/21 04:53:48;;;;;;;1.67;1.07;;;;;;;;;;5009954;28;20432;-66
2022/12/21 04:56:15;;;;;;;2.37;1.00;;;;;;;;;;5009428;28;20491;-68
2022/12/21 04:58:41;;;;;;;7.43;1.40;;;;;;;;;;5007052;28;20514;-66
2022/12/21 05:01:11;;;;;;;0.73;0.73;;;;;;;;;;5009020;28;20432;-66
2022/12/21 05:03:37;;;;;;;5.43;1.07;;;;;;;;;;5010079;28;20424;-66
2022/12/21 05:06:03;;;;;;;6.13;0.83;;;;;;;;;;5008061;28;20828;-66
2022/12/21 05:08:29;;;;;;;1.13;1.00;;;;;;;;;;4990932;28;20434;-66
2022/12/21 05:10:55;;;;;;;0.90;0.90;;;;;;;;;;5008519;28;20479;-66
2022/12/21 05:13:21;;;;;;;0.70;0.70;;;;;;;;;;5009221;28;20566;-67
2022/12/21 05:15:47;;;;;;;2.73;1.23;;;;;;;;;;5008606;28;20924;-67
2022/12/21 05:18:13;;;;;;;1.10;1.10;;;;;;;;;;5008580;28;20852;-68
2022/12/21 05:20:39;;;;;;;1.03;1.00;;;;;;;;;;5007993;28;20875;-66
2022/12/21 05:23:04;;;;;;;0.93;0.77;;;;;;;;;;5008141;28;20455;-67
2022/12/21 05:25:30;;;;;;;0.80;0.80;;;;;;;;;;5009246;28;20450;-66
2022/12/21 05:27:56;;;;;;;1.50;1.50;;;;;;;;;;5008575;28;21731;-66
2022/12/21 05:30:22;;;;;;;0.60;0.60;;;;;;;;;;5008692;28;20431;-66
2022/12/21 05:32:48;;;;;;;4.03;0.97;;;;;;;;;;5008460;28;20491;-66
2022/12/21 05:35:14;;;;;;;1.13;1.13;;;;;;;;;;5007583;28;20984;-65
2022/12/21 05:37:40;;;;;;;1.47;1.30;;;;;;;;;;5008800;28;20806;-66
2022/12/21 05:40:06;;;;;;;1.27;1.20;;;;;;;;;;5008190;28;20444;-65
2022/12/21 05:42:32;;;;;;;1.43;0.90;;;;;;;;;;5009383;28;20432;-66
2022/12/21 05:44:58;;;;;;;0.90;0.90;;;;;;;;;;5009731;28;20423;-66
2022/12/21 05:47:24;;;;;;;2.10;0.97;;;;;;;;;;5007606;28;20527;-66
2022/12/21 05:49:51;;;;;;;0.80;0.80;;;;;;;;;;5012559;28;20944;-67
2022/12/21 05:52:17;;;;;;;1.07;1.00;;;;;;;;;;5012078;28;20997;-67
2022/12/21 05:54:43;;;;;;;0.80;0.80;;;;;;;;;;5013460;28;20451;-67
2022/12/21 05:57:09;;;;;;;0.93;0.93;;;;;;;;;;5010522;28;20428;-67
2022/12/21 05:59:35;;;;;;;1.67;0.90;;;;;;;;;;5011296;28;20599;-66
2022/12/21 06:02:01;;;;;;;1.27;1.17;;;;;;;;;;5012658;28;20432;-67
2022/12/21 06:04:27;;;;;;;2.90;1.27;;;;;;;;;;4994773;28;20439;-66
2022/12/21 06:06:53;;;;;;;1.20;1.20;;;;;;;;;;5009442;28;20467;-66
2022/12/21 06:09:19;;;;;;;5.20;1.70;;;;;;;;;;5011204;28;20954;-67
2022/12/21 06:11:45;;;;;;;1.60;1.50;;;;;;;;;;5011788;28;20587;-67
2022/12/21 06:14:11;;;;;;;2.23;2.03;;;;;;;;;;5011624;28;20472;-66
2022/12/21 06:16:37;;;;;;;1.97;1.90;;;;;;;;;;5009669;28;20463;-66
2022/12/21 06:19:03;;;;;;;1.80;1.70;;;;;;;;;;5011549;28;20416;-66
2022/12/21 06:21:29;;;;;;;5.20;1.93;;;;;;;;;;5009879;28;20436;-66
2022/12/21 06:23:55;;;;;;;2.30;1.90;;;;;;;;;;5012020;28;20428;-66
2022/12/21 06:26:21;;;;;;;5.80;1.70;;;;;;;;;;5010557;28;20439;-68
2022/12/21 06:28:51;;;;;;;4.43;2.00;;;;;;;;;;5010500;28;20802;-66
2022/12/21 06:31:18;;;;;;;3.00;1.70;;;;;;;;;;5010844;28;20472;-67
2022/12/21 06:33:44;;;;;;;3.20;1.97;;;;;;;;;;5010965;28;20467;-67
2022/12/21 06:36:11;;;;;;;0.97;0.97;;;;;;;;;;5010092;28;20893;-66
2022/12/21 06:38:37;;;;;;;5.67;2.07;;;;;;;;;;5009263;28;20725;-66
2022/12/21 06:41:04;;;;;;;1.73;1.63;;;;;;;;;;5010519;28;20471;-67
2022/12/21 06:43:32;;;;;;;3.80;1.60;;;;;;;;;;5010921;28;20933;-69
2022/12/21 06:46:02;;;;;;;3.33;1.73;;;;;;;;;;5010830;28;20440;-69
2022/12/21 06:48:29;;;;;;;2.00;1.30;;;;;;;;;;5010452;28;20436;-69
2022/12/21 06:50:56;;;;;;;1.53;1.43;;;;;;;;;;5009274;28;20549;-69
2022/12/21 06:53:22;;;;;;;1.50;1.27;;;;;;;;;;4994118;28;20440;-68
2022/12/21 06:55:48;;;;;;;1.10;1.10;;;;;;;;;;5010113;28;20432;-69
2022/12/21 06:58:15;;;;;;;2.43;1.60;;;;;;;;;;5009673;28;20446;-68
2022/12/21 07:00:41;;;;;;;4.67;0.90;;;;;;;;;;5008747;28;20452;-68
2022/12/21 07:03:07;;;;;;;88.63;40.53;;;;;;;;;;5009668;28;20968;-68
2022/12/21 07:05:33;;;;;;;3.00;2.80;;;;;;;;;;5009041;28;20451;-68
2022/12/21 07:07:59;;;;;;;3.10;1.73;;;;;;;;;;5008747;28;20487;-66
2022/12/21 07:10:26;;;;;;;1.13;0.80;;;;;;;;;;5010061;28;20456;-66
2022/12/21 07:12:52;;;;;;;0.80;0.60;;;;;;;;;;5010781;28;20484;-66
2022/12/21 07:15:18;;;;;;;1.33;1.00;;;;;;;;;;5008245;28;20501;-67
2022/12/21 07:17:44;;;;;;;0.67;0.67;;;;;;;;;;5010031;28;20439;-66
2022/12/21 07:20:10;;;;;;;3.57;1.90;;;;;;;;;;5010132;28;20441;-66
2022/12/21 07:22:36;;;;;;;0.93;0.93;;;;;;;;;;5010463;28;20432;-66
2022/12/21 07:25:05;;;;;;;2.70;1.00;;;;;;;;;;5010154;28;20423;-66
2022/12/21 07:27:31;;;;;;;6.07;1.13;;;;;;;;;;5009209;28;20535;-65
2022/12/21 07:29:57;;;;;;;1.13;0.60;;;;;;;;;;5010187;28;20581;-66
2022/12/21 07:32:25;;;;;;;0.63;0.63;;;;;;;;;;4989766;28;20991;-64
2022/12/21 07:34:51;;;;;;;1.03;0.63;;;;;;;;;;5010787;28;20435;-65
2022/12/21 07:37:17;;;;;;;0.83;0.63;;;;;;;;;;5009406;28;20428;-64
2022/12/21 07:39:43;;;;;;;0.70;0.70;;;;;;;;;;5010064;28;20800;-65
2022/12/21 07:42:09;;;;;;;2.40;0.80;;;;;;;;;;5009555;28;20438;-64
2022/12/21 07:44:35;;;;;;;1.57;1.10;;;;;;;;;;5010955;28;20932;-65
2022/12/21 07:47:01;;;;;;;10.97;6.30;;;;;;;;;;5010280;28;20810;-65
2022/12/21 07:49:27;;;;;;;2.90;2.67;;;;;;;;;;4993206;28;20790;-65
2022/12/21 07:51:53;;;;;;;2.10;0.97;;;;;;;;;;5008173;28;20546;-65
2022/12/21 07:54:19;;;;;;;11.23;1.87;;;;;;;;;;5008257;28;20424;-65
2022/12/21 07:56:45;;;;;;;2.47;1.30;;;;;;;;;;5009896;28;20470;-65
2022/12/21 07:59:11;;;;;;;7.83;2.93;;;;;;;;;;5009988;28;20458;-65
2022/12/21 08:01:37;;;;;;;1.80;1.30;;;;;;;;;;5009057;28;20440;-65
2022/12/21 08:04:03;;;;;;;1.43;1.33;;;;;;;;;;4992911;28;20434;-66
2022/12/21 08:06:29;;;;;;;1.17;1.10;;;;;;;;;;5008416;28;20458;-66
2022/12/21 08:08:55;;;;;;;2.20;2.10;;;;;;;;;;4988115;28;20428;-66
2022/12/21 08:11:21;;;;;;;18.10;5.70;;;;;;;;;;5007968;28;20504;-65
2022/12/21 08:13:48;;;;;;;1.00;1.00;;;;;;;;;;4992749;28;21066;-65
2022/12/21 08:16:15;;;;;;;1.00;0.97;;;;;;;;;;5009720;28;20424;-65
2022/12/21 08:18:41;;;;;;;0.93;0.93;;;;;;;;;;5008003;28;20440;-65
2022/12/21 08:21:07;;;;;;;5.70;1.27;;;;;;;;;;5008326;28;20432;-66
2022/12/21 08:23:33;;;;;;;0.87;0.87;;;;;;;;;;5009836;28;20809;-66
2022/12/21 08:26:03;;;;;;;1.73;0.80;;;;;;;;;;5009250;28;20490;-65
2022/12/21 08:28:29;;;;;;;1.20;1.20;;;;;;;;;;5003967;28;20475;-65
2022/12/21 08:31:06;;;;;;;1.53;1.00;;;;;;;;;;5006954;28;20966;-65
2022/12/21 08:33:32;;;;;;;8.50;3.27;;;;;;;;;;5008457;28;20465;-65
2022/12/21 08:35:58;;;;;;;6.20;0.97;;;;;;;;;;5006359;28;20604;-65
2022/12/21 08:38:24;;;;;;;1.30;1.30;;;;;;;;;;5009088;28;20432;-65
2022/12/21 08:40:51;;;;;;;0.70;0.70;;;;;;;;;;5009238;28;20520;-65
2022/12/21 08:43:17;;;;;;;1.03;1.03;;;;;;;;;;5008491;28;20472;-65
2022/12/21 08:45:44;;;;;;;2.00;0.63;;;;;;;;;;5008257;28;20490;-65
2022/12/21 08:48:10;;;;;;;1.07;0.80;;;;;;;;;;5008718;28;20991;-66
2022/12/21 08:50:35;;;;;;;0.73;0.73;;;;;;;;;;5009294;28;20937;-65
2022/12/21 08:53:01;;;;;;;0.70;0.67;;;;;;;;;;5008296;28;20499;-65
2022/12/21 08:55:27;;;;;;;1.33;1.17;;;;;;;;;;4990621;28;21039;-68
2022/12/21 08:57:53;;;;;;;0.73;0.73;;;;;;;;;;4990905;28;20428;-70
2022/12/21 09:00:19;;;;;;;0.77;0.77;;;;;;;;;;5006590;28;20577;-69
2022/12/21 09:02:45;;;;;;;0.60;0.60;;;;;;;;;;5006088;28;20429;-68
2022/12/21 09:05:11;;;;;;;0.60;0.60;;;;;;;;;;5008259;28;20443;-68
2022/12/21 09:07:37;;;;;;;0.80;0.80;;;;;;;;;;4989959;28;20432;-68
2022/12/21 09:10:04;;;;;;;0.60;0.60;;;;;;;;;;5004759;28;20494;-66
2022/12/21 09:12:30;;;;;;;0.97;0.97;;;;;;;;;;5006447;28;20498;-66
2022/12/21 09:14:55;;;;;;;4.90;0.77;;;;;;;;;;5007010;28;20808;-66
2022/12/21 09:17:21;;;;;;;1.77;1.07;;;;;;;;;;5005030;28;20432;-65
2022/12/21 09:19:47;;;;;;;1.90;0.80;;;;;;;;;;5008010;28;20434;-72
2022/12/21 09:22:13;;;;;;;3.90;1.07;;;;;;;;;;5009810;28;20526;-67
2022/12/21 09:24:39;;;;;;;0.90;0.73;;;;;;;;;;5013029;28;20794;-65
2022/12/21 09:27:05;;;;;;;1.30;1.27;;;;;;;;;;5012934;28;20435;-66
2022/12/21 09:29:31;;;;;;;2.63;2.33;;;;;;;;;;5011389;28;22257;-65
2022/12/21 09:31:57;;;;;;;1.47;1.37;;;;;;;;;;5013308;28;20480;-67
2022/12/21 09:34:23;;;;;;;3.10;2.97;;;;;;;;;;5012695;28;20454;-66
2022/12/21 09:36:49;;;;;;;1.63;1.60;;;;;;;;;;5011578;28;20359;-65
2022/12/21 09:39:15;;;;;;;4.93;1.67;;;;;;;;;;5012837;28;20189;-66
2022/12/21 09:41:53;;;;;;;4.63;1.60;;;;;;;;;;5012516;28;20415;-66
2022/12/21 09:44:37;;;;;;;1.93;1.03;;;;;;;;;;5013133;28;20494;-67
2022/12/21 09:47:05;;;;;;;1.33;1.23;;;;;;;;;;5011379;28;20924;-66
2022/12/21 09:49:54;;;;;;;2.60;1.37;;;;;;;;;;5012664;28;20435;-65
2022/12/21 09:52:26;;;;;;;2.20;2.07;;;;;;;;;;5000630;28;20992;-65
2022/12/21 09:55:06;;;;;;;1.10;1.00;;;;;;;;;;5010734;28;20458;-65
2022/12/21 09:57:36;;;;;;;1.50;1.50;;;;;;;;;;5009720;28;20454;-65
2022/12/21 10:00:04;;;;;;;6.53;1.03;;;;;;;;;;4994154;28;20805;-65
2022/12/21 10:02:38;;;;;;;1.37;1.10;;;;;;;;;;5011815;28;20581;-65
2022/12/21 10:05:22;;;;;;;1.10;0.90;;;;;;;;;;4997865;28;21100;-65
2022/12/21 10:07:47;;;;;;;1.33;1.20;;;;;;;;;;5010008;28;20494;-65
2022/12/21 10:10:21;;;;;;;1.80;1.25;;;;;;;;;;5010592;28;20855;-67
2022/12/21 10:13:00;;;;;;;0.80;0.80;;;;;;;;;;5007945;28;20331;-67
2022/12/21 10:15:35;;;;;;;1.20;0.97;;;;;;;;;;5010882;28;20522;-68
2022/12/21 10:18:12;;;;;;;1.90;1.00;;;;;;;;;;4993959;28;20486;-68
2022/12/21 10:20:46;;;;;;;5.33;1.10;;;;;;;;;;5009985;28;20455;-67
2022/12/21 10:23:38;;;;;;;0.80;0.80;;;;;;;;;;5010370;28;20836;-65
2022/12/21 10:26:06;;;;;;;1.43;1.40;;;;;;;;;;4989735;28;20439;-66
2022/12/21 10:28:43;;;;;;;4.23;1.97;;;;;;;;;;5010800;28;20945;-65
2022/12/21 10:31:10;;;;;;;0.63;0.63;;;;;;;;;;4993550;28;20944;-66
2022/12/21 10:33:40;;;;;;;3.50;3.50;;;;;;;;;;5010118;28;20444;-65
2022/12/21 10:36:07;;;;;;;4.00;0.93;;;;;;;;;;4993269;28;20515;-65
2022/12/21 10:38:34;;;;;;;1.10;1.10;;;;;;;;;;5000059;28;21078;-65
2022/12/21 10:41:01;;;;;;;0.73;0.73;;;;;;;;;;4991500;28;20505;-65
2022/12/21 10:43:27;;;;;;;0.90;0.90;;;;;;;;;;5010313;28;20455;-66
2022/12/21 10:45:53;;;;;;;1.27;1.17;;;;;;;;;;5011794;28;20424;-65
2022/12/21 10:48:19;;;;;;;1.07;0.97;;;;;;;;;;5011769;28;20424;-65
2022/12/21 10:50:48;;;;;;;3.53;3.33;;;;;;;;;;5010635;28;21860;-66
2022/12/21 10:53:24;;;;;;;1.67;1.20;;;;;;;;;;4993286;28;20463;-66
2022/12/21 10:55:51;;;;;;;4.73;3.20;;;;;;;;;;5011913;28;20438;-66
2022/12/21 10:58:27;;;;;;;9.60;3.80;;;;;;;;;;4994095;28;20444;-65
2022/12/21 11:00:53;;;;;;;3.03;2.83;;;;;;;;;;5010778;28;20507;-65
2022/12/21 11:03:27;;;;;;;2.57;2.37;;;;;;;;;;5010732;28;20528;-65
2022/12/21 11:05:54;;;;;;;12.17;6.67;;;;;;;;;;5010222;28;20428;-64
2022/12/21 11:08:25;;;;;;;3.73;2.70;;;;;;;;;;5009573;28;20456;-65
2022/12/21 11:10:52;;;;;;;1.70;1.33;;;;;;;;;;5010845;28;20446;-65
2022/12/21 11:13:19;;;;;;;0.87;0.87;;;;;;;;;;5011468;28;20478;-65
2022/12/21 11:15:53;;;;;;;1.17;1.07;;;;;;;;;;5011597;28;20856;-65
2022/12/21 11:18:27;;;;;;;1.20;1.03;;;;;;;;;;5009783;28;20435;-65
2022/12/21 11:20:53;;;;;;;1.30;1.17;;;;;;;;;;5011044;28;20470;-65
2022/12/21 11:23:19;;;;;;;1.53;1.43;;;;;;;;;;5010286;28;20428;-65
2022/12/21 11:25:45;;;;;;;0.83;0.80;;;;;;;;;;5010536;28;20436;-66
2022/12/21 11:28:11;;;;;;;2.73;1.00;;;;;;;;;;5010418;28;20454;-66
2022/12/21 11:30:38;;;;;;;1.23;0.70;;;;;;;;;;5010475;28;20944;-65
2022/12/21 11:33:06;;;;;;;1.60;1.60;;;;;;;;;;5011169;28;20479;-65
2022/12/21 11:35:34;;;;;;;1.80;1.30;;;;;;;;;;5009827;28;20475;-65
2022/12/21 11:38:09;;;;;;;1.13;1.13;;;;;;;;;;4990990;28;20841;-65
2022/12/21 11:40:35;;;;;;;2.50;2.40;;;;;;;;;;5009956;28;20510;-66
2022/12/21 11:43:01;;;;;;;1.10;1.10;;;;;;;;;;5009770;28;20532;-68
2022/12/21 11:45:45;;;;;;;16.30;10.00;;;;;;;;;;5007550;28;20527;-66
2022/12/21 11:48:11;;;;;;;1.83;1.83;;;;;;;;;;4993014;28;20562;-66
2022/12/21 11:50:56;;;;;;;11.40;8.80;;;;;;;;;;5010968;28;20993;-66
2022/12/21 11:53:40;;;;;;;11.10;6.50;;;;;;;;;;5011189;28;20948;-66
2022/12/21 11:56:18;;;;;;;2.17;2.07;;;;;;;;;;5007802;28;20448;-66
2022/12/21 11:58:56;;;;;;;1.80;1.13;;;;;;;;;;4992456;28;20440;-65
2022/12/21 12:01:22;;;;;;;1.80;1.70;;;;;;;;;;5011050;28;20830;-66
2022/12/21 12:03:54;;;;;;;4.33;4.10;;;;;;;;;;5009384;28;20444;-66
2022/12/21 12:06:30;;;;;;;1.77;1.67;;;;;;;;;;5083880;28;20534;-68
2022/12/21 12:09:15;;;;;;;2.67;2.27;;;;;;;;;;5065507;28;20838;-66
2022/12/21 12:12:01;;;;;;;1.33;1.33;;;;;;;;;;5067024;28;20449;-67
2022/12/21 12:14:42;;;;;;;2.83;2.80;;;;;;;;;;5045880;28;20422;-67
2022/12/21 12:17:08;;;;;;;4.30;4.00;;;;;;;;;;5065675;28;20441;-67
2022/12/21 12:19:49;;;;;;;4.37;2.53;;;;;;;;;;5066454;28;20491;-67
2022/12/21 12:22:20;;;;;;;2.47;1.70;;;;;;;;;;5065345;28;20494;-68
2022/12/21 12:24:46;;;;;;;3.60;3.30;;;;;;;;;;5065643;28;21020;-67
2022/12/21 12:27:19;;;;;;;4.27;3.30;;;;;;;;;;5064584;28;20832;-66
2022/12/21 12:30:04;;;;;;;3.87;3.60;;;;;;;;;;5065947;28;20807;-66
2022/12/21 12:32:48;;;;;;;8.97;8.07;;;;;;;;;;5064402;28;20434;-66
2022/12/21 12:35:29;;;;;;;4.47;4.17;;;;;;;;;;5066183;28;20438;-66
2022/12/21 12:37:58;;;;;;;7.37;6.73;;;;;;;;;;5066434;28;20414;-67
2022/12/21 12:40:43;;;;;;;1.93;1.83;;;;;;;;;;5066242;28;20522;-67
2022/12/21 12:43:28;;;;;;;2.20;2.03;;;;;;;;;;5065991;28;20433;-67
2022/12/21 12:46:01;;;;;;;1.73;1.63;;;;;;;;;;5064080;28;20473;-67
2022/12/21 12:48:54;;;;;;;1.37;1.37;;;;;;;;;;5063619;28;20433;-66
2022/12/21 12:51:33;;;;;;;7.10;6.50;;;;;;;;;;5062649;28;20442;-66
2022/12/21 12:54:08;;;;;;;13.83;8.80;;;;;;;;;;5062464;28;20482;-65
2022/12/21 12:56:41;;;;;;;1.57;1.40;;;;;;;;;;5064234;28;20432;-66
2022/12/21 12:59:07;;;;;;;12.80;11.87;;;;;;;;;;5065073;28;20448;-66
2022/12/21 13:01:36;;;;;;;0.80;0.80;;;;;;;;;;5065938;28;20905;-66
2022/12/21 13:04:17;;;;;;;0.80;0.80;;;;;;;;;;5066013;28;20438;-66
2022/12/21 13:06:46;;;;;;;0.77;0.77;;;;;;;;;;5082638;28;20490;-65
2022/12/21 13:09:31;;;;;;;0.50;0.50;;;;;;;;;;5085307;28;20500;-66
2022/12/21 13:11:59;;;;;;;2.30;0.80;;;;;;;;;;5085772;28;20505;-66
2022/12/21 13:14:33;;;;;;;0.80;0.80;;;;;;;;;;5065866;28;20443;-66
2022/12/21 13:17:08;;;;;;;1.00;1.00;;;;;;;;;;5075631;28;20489;-66
2022/12/21 13:19:34;;;;;;;5.40;4.77;;;;;;;;;;5071844;28;20515;-66
2022/12/21 13:22:03;;;;;;;2.00;1.90;;;;;;;;;;5071114;28;20446;-66
2022/12/21 13:24:40;;;;;;;2.50;0.87;;;;;;;;;;5070360;28;20972;-66
2022/12/21 13:27:08;;;;;;;1.00;1.00;;;;;;;;;;5053790;28;20950;-66
2022/12/21 13:29:38;;;;;;;0.70;0.70;;;;;;;;;;5072065;28;20434;-65
2022/12/21 13:32:12;;;;;;;1.40;1.10;;;;;;;;;;5071141;28;20952;-66
2022/12/21 13:34:55;;;;;;;0.90;0.90;;;;;;;;;;5070113;28;20586;-62
2022/12/21 13:37:22;;;;;;;5.10;1.13;;;;;;;;;;5070430;28;20437;-66
2022/12/21 13:39:51;;;;;;;0.90;0.90;;;;;;;;;;5070962;28;20437;-65
2022/12/21 13:42:24;;;;;;;2.07;0.90;;;;;;;;;;5054350;28;20477;-66
2022/12/21 13:44:54;;;;;;;0.97;0.97;;;;;;;;;;5052884;28;20552;-64
2022/12/21 13:47:20;;;;;;;0.80;0.80;;;;;;;;;;5069879;28;20449;-66
2022/12/21 13:49:57;;;;;;;1.40;1.40;;;;;;;;;;5053221;28;20456;-66
2022/12/21 13:52:23;;;;;;;0.97;0.97;;;;;;;;;;5053994;28;20527;-65
2022/12/21 13:54:57;;;;;;;0.60;0.60;;;;;;;;;;5071407;28;20871;-66
2022/12/21 13:57:29;;;;;;;1.07;1.07;;;;;;;;;;5070051;28;20437;-65
2022/12/21 14:00:15;;;;;;;1.03;1.03;;;;;;;;;;5071892;28;20418;-65
2022/12/21 14:02:56;;;;;;;0.73;0.70;;;;;;;;;;5071998;28;20475;-65
2022/12/21 14:05:27;;;;;;;1.00;0.90;;;;;;;;;;5070806;28;20488;-66
2022/12/21 14:08:11;;;;;;;1.03;0.90;;;;;;;;;;5070365;28;20483;-65
2022/12/21 14:10:50;;;;;;;0.77;0.77;;;;;;;;;;5072020;28;20918;-65
2022/12/21 14:13:19;;;;;;;0.83;0.83;;;;;;;;;;5070708;28;20462;-66
2022/12/21 14:15:54;;;;;;;0.53;0.53;;;;;;;;;;5071484;28;20918;-65
2022/12/21 14:18:23;;;;;;;0.90;0.90;;;;;;;;;;5069610;28;20800;-67
2022/12/21 14:20:58;;;;;;;0.50;0.50;;;;;;;;;;5071203;28;20491;-66
2022/12/21 14:23:28;;;;;;;1.60;0.60;;;;;;;;;;5070978;28;20448;-66
2022/12/21 14:25:54;;;;;;;0.70;0.70;;;;;;;;;;5071071;28;20503;-65
2022/12/21 14:28:22;;;;;;;2.00;1.00;;;;;;;;;;5068884;28;20468;-65
2022/12/21 14:30:49;;;;;;;0.60;0.60;;;;;;;;;;5071389;28;20433;-65
2022/12/21 14:33:18;;;;;;;1.00;1.00;;;;;;;;;;5070566;28;20441;-66
2022/12/21 14:35:44;;;;;;;0.90;0.90;;;;;;;;;;5070722;28;20421;-66
2022/12/21 14:38:19;;;;;;;1.17;1.17;;;;;;;;;;5052358;28;20471;-65
2022/12/21 14:40:55;;;;;;;1.40;1.30;;;;;;;;;;5068767;28;20425;-65
2022/12/21 14:43:21;;;;;;;0.80;0.80;;;;;;;;;;5070650;28;20429;-65
2022/12/21 14:45:48;;;;;;;0.83;0.83;;;;;;;;;;5052245;28;20603;-66
2022/12/21 14:48:29;;;;;;;2.87;1.20;;;;;;;;;;5070115;28;20494;-65
2022/12/21 14:50:58;;;;;;;2.53;1.20;;;;;;;;;;5052364;28;20433;-66
2022/12/21 14:53:27;;;;;;;1.60;1.57;;;;;;;;;;5070493;28;20532;-65
2022/12/21 14:56:08;;;;;;;1.00;1.00;;;;;;;;;;5070311;28;20532;-66
2022/12/21 14:58:36;;;;;;;1.70;1.10;;;;;;;;;;5069956;28;20833;-65
2022/12/21 15:01:15;;;;;;;0.80;0.80;;;;;;;;;;5070276;28;20421;-66
2022/12/21 15:03:42;;;;;;;1.00;0.90;;;;;;;;;;5070095;28;20460;-66
2022/12/21 15:06:09;;;;;;;0.90;0.90;;;;;;;;;;5051402;28;20551;-66
2022/12/21 15:08:45;;;;;;;1.20;1.20;;;;;;;;;;5067127;28;20444;-67
2022/12/21 15:11:20;;;;;;;0.70;0.70;;;;;;;;;;5068472;28;20441;-61
2022/12/21 15:13:51;;;;;;;1.10;1.10;;;;;;;;;;5070291;28;20421;-66
2022/12/21 15:16:19;;;;;;;0.90;0.90;;;;;;;;;;5069408;28;20429;-66